sensor_id;sensor_type;location;lat;lon;timestamp;P1;durP1;ratioP1;P2;durP2;ratioP2
10659;SDS011;5378;53.206;13.316;2023-02-01T00:01:40;18.47;;;2.17;;
10659;SDS011;5378;53.206;13.316;2023-02-01T00:04:27;16.53;;;1.90;;
10659;SDS011;5378;53.206;13.316;2023-02-01T00:07:14;11.57;;;2.03;;
10659;SDS011;5378;53.206;13.316;2023-02-01T00:10:01;11.00;;;2.03;;
10659;SDS011;5378;53.206;13.316;2023-02-01T00:12:51;12.60;;;1.77;;
10659;SDS011;5378;53.206;13.316;2023-02-01T00:15:38;15.97;;;0.87;;
10659;SDS011;5378;53.206;13.316;2023-02-01T00:18:25;17.60;;;2.17;;
10659;SDS011;5378;53.206;13.316;2023-02-01T00:21:12;20.67;;;2.33;;
10659;SDS011;5378;53.206;13.316;2023-02-01T00:24:00;21.97;;;2.67;;
10659;SDS011;5378;53.206;13.316;2023-02-01T00:26:48;5.43;;;1.30;;
10659;SDS011;5378;53.206;13.316;2023-02-01T00:29:37;9.40;;;1.53;;
10659;SDS011;5378;53.206;13.316;2023-02-01T00:32:24;3.97;;;1.70;;
10659;SDS011;5378;53.206;13.316;2023-02-01T00:35:11;13.43;;;2.73;;
10659;SDS011;5378;53.206;13.316;2023-02-01T00:37:58;22.20;;;1.70;;
10659;SDS011;5378;53.206;13.316;2023-02-01T00:40:45;6.33;;;1.93;;
10659;SDS011;5378;53.206;13.316;2023-02-01T00:43:32;9.37;;;1.30;;
10659;SDS011;5378;53.206;13.316;2023-02-01T00:46:21;9.17;;;2.40;;
10659;SDS011;5378;53.206;13.316;2023-02-01T00:49:08;13.50;;;1.80;;
10659;SDS011;5378;53.206;13.316;2023-02-01T00:51:55;21.43;;;2.60;;
10659;SDS011;5378;53.206;13.316;2023-02-01T00:54:42;11.93;;;1.87;;
10659;SDS011;5378;53.206;13.316;2023-02-01T00:57:30;20.73;;;2.40;;
10659;SDS011;5378;53.206;13.316;2023-02-01T01:00:17;8.77;;;2.40;;
10659;SDS011;5378;53.206;13.316;2023-02-01T01:03:07;16.30;;;2.27;;
10659;SDS011;5378;53.206;13.316;2023-02-01T01:06:04;17.80;;;2.47;;
10659;SDS011;5378;53.206;13.316;2023-02-01T01:08:54;9.03;;;1.40;;
10659;SDS011;5378;53.206;13.316;2023-02-01T01:11:42;11.60;;;1.67;;
10659;SDS011;5378;53.206;13.316;2023-02-01T01:14:29;8.33;;;2.10;;
10659;SDS011;5378;53.206;13.316;2023-02-01T01:17:16;5.93;;;1.63;;
10659;SDS011;5378;53.206;13.316;2023-02-01T01:20:05;17.77;;;2.10;;
10659;SDS011;5378;53.206;13.316;2023-02-01T01:22:53;8.33;;;1.80;;
10659;SDS011;5378;53.206;13.316;2023-02-01T01:25:40;17.53;;;1.80;;
10659;SDS011;5378;53.206;13.316;2023-02-01T01:28:28;17.27;;;2.27;;
10659;SDS011;5378;53.206;13.316;2023-02-01T01:31:16;12.50;;;2.50;;
10659;SDS011;5378;53.206;13.316;2023-02-01T01:34:04;10.30;;;2.40;;
10659;SDS011;5378;53.206;13.316;2023-02-01T01:36:53;8.03;;;1.60;;
10659;SDS011;5378;53.206;13.316;2023-02-01T01:39:40;11.87;;;1.57;;
10659;SDS011;5378;53.206;13.316;2023-02-01T01:42:27;5.17;;;1.20;;
10659;SDS011;5378;53.206;13.316;2023-02-01T01:45:19;3.57;;;1.10;;
10659;SDS011;5378;53.206;13.316;2023-02-01T01:48:11;12.90;;;2.10;;
10659;SDS011;5378;53.206;13.316;2023-02-01T01:51:06;12.10;;;0.90;;
10659;SDS011;5378;53.206;13.316;2023-02-01T01:54:00;7.60;;;1.27;;
10659;SDS011;5378;53.206;13.316;2023-02-01T01:56:50;4.10;;;1.57;;
10659;SDS011;5378;53.206;13.316;2023-02-01T01:59:41;7.60;;;0.77;;
10659;SDS011;5378;53.206;13.316;2023-02-01T02:02:33;8.57;;;2.20;;
10659;SDS011;5378;53.206;13.316;2023-02-01T02:05:21;26.77;;;1.60;;
10659;SDS011;5378;53.206;13.316;2023-02-01T02:08:09;4.37;;;0.63;;
10659;SDS011;5378;53.206;13.316;2023-02-01T02:10:57;9.30;;;1.30;;
10659;SDS011;5378;53.206;13.316;2023-02-01T02:13:48;7.20;;;1.10;;
10659;SDS011;5378;53.206;13.316;2023-02-01T02:16:47;4.80;;;1.47;;
10659;SDS011;5378;53.206;13.316;2023-02-01T02:20:01;8.83;;;0.93;;
10659;SDS011;5378;53.206;13.316;2023-02-01T02:23:27;13.03;;;1.37;;
10659;SDS011;5378;53.206;13.316;2023-02-01T02:26:46;21.67;;;3.03;;
10659;SDS011;5378;53.206;13.316;2023-02-01T02:29:54;2.60;;;0.97;;
10659;SDS011;5378;53.206;13.316;2023-02-01T02:36:32;11.83;;;1.33;;
10659;SDS011;5378;53.206;13.316;2023-02-01T02:39:28;10.87;;;1.20;;
10659;SDS011;5378;53.206;13.316;2023-02-01T02:42:25;10.87;;;2.20;;
10659;SDS011;5378;53.206;13.316;2023-02-01T02:45:37;15.80;;;1.83;;
10659;SDS011;5378;53.206;13.316;2023-02-01T02:48:46;3.80;;;1.23;;
10659;SDS011;5378;53.206;13.316;2023-02-01T02:51:40;6.50;;;1.13;;
10659;SDS011;5378;53.206;13.316;2023-02-01T02:54:49;9.07;;;1.83;;
10659;SDS011;5378;53.206;13.316;2023-02-01T02:57:40;9.77;;;1.90;;
10659;SDS011;5378;53.206;13.316;2023-02-01T03:00:48;15.50;;;2.60;;
10659;SDS011;5378;53.206;13.316;2023-02-01T03:03:53;2.67;;;1.07;;
10659;SDS011;5378;53.206;13.316;2023-02-01T03:07:09;4.47;;;1.03;;
10659;SDS011;5378;53.206;13.316;2023-02-01T03:10:00;10.13;;;1.50;;
10659;SDS011;5378;53.206;13.316;2023-02-01T03:12:52;5.70;;;1.43;;
10659;SDS011;5378;53.206;13.316;2023-02-01T03:15:45;17.50;;;2.00;;
10659;SDS011;5378;53.206;13.316;2023-02-01T03:18:39;10.30;;;1.93;;
10659;SDS011;5378;53.206;13.316;2023-02-01T03:21:32;10.43;;;1.53;;
10659;SDS011;5378;53.206;13.316;2023-02-01T03:24:25;18.17;;;2.30;;
10659;SDS011;5378;53.206;13.316;2023-02-01T03:27:20;5.50;;;1.67;;
10659;SDS011;5378;53.206;13.316;2023-02-01T03:30:13;12.33;;;2.67;;
10659;SDS011;5378;53.206;13.316;2023-02-01T03:33:08;6.13;;;1.43;;
10659;SDS011;5378;53.206;13.316;2023-02-01T03:36:10;3.13;;;0.90;;
10659;SDS011;5378;53.206;13.316;2023-02-01T03:39:02;12.60;;;2.60;;
10659;SDS011;5378;53.206;13.316;2023-02-01T03:41:55;7.93;;;1.50;;
10659;SDS011;5378;53.206;13.316;2023-02-01T03:44:46;23.70;;;1.97;;
10659;SDS011;5378;53.206;13.316;2023-02-01T03:47:39;13.43;;;1.60;;
10659;SDS011;5378;53.206;13.316;2023-02-01T03:50:30;11.30;;;1.50;;
10659;SDS011;5378;53.206;13.316;2023-02-01T03:53:21;9.90;;;2.83;;
10659;SDS011;5378;53.206;13.316;2023-02-01T03:56:10;6.90;;;1.67;;
10659;SDS011;5378;53.206;13.316;2023-02-01T03:58:59;13.83;;;2.23;;
10659;SDS011;5378;53.206;13.316;2023-02-01T04:01:51;23.03;;;2.50;;
10659;SDS011;5378;53.206;13.316;2023-02-01T04:04:38;15.63;;;2.60;;
10659;SDS011;5378;53.206;13.316;2023-02-01T04:07:26;8.70;;;1.87;;
10659;SDS011;5378;53.206;13.316;2023-02-01T04:10:13;7.33;;;1.90;;
10659;SDS011;5378;53.206;13.316;2023-02-01T04:13:04;11.63;;;2.27;;
10659;SDS011;5378;53.206;13.316;2023-02-01T04:15:52;12.63;;;2.10;;
10659;SDS011;5378;53.206;13.316;2023-02-01T04:18:39;6.57;;;1.50;;
10659;SDS011;5378;53.206;13.316;2023-02-01T04:21:27;10.97;;;2.20;;
10659;SDS011;5378;53.206;13.316;2023-02-01T04:24:14;19.83;;;2.63;;
10659;SDS011;5378;53.206;13.316;2023-02-01T04:27:01;18.43;;;2.30;;
10659;SDS011;5378;53.206;13.316;2023-02-01T04:29:48;16.87;;;2.47;;
10659;SDS011;5378;53.206;13.316;2023-02-01T04:32:37;10.63;;;1.77;;
10659;SDS011;5378;53.206;13.316;2023-02-01T04:35:25;13.30;;;1.87;;
10659;SDS011;5378;53.206;13.316;2023-02-01T04:38:12;35.13;;;2.23;;
10659;SDS011;5378;53.206;13.316;2023-02-01T04:40:59;9.63;;;1.50;;
10659;SDS011;5378;53.206;13.316;2023-02-01T04:43:47;15.83;;;1.60;;
10659;SDS011;5378;53.206;13.316;2023-02-01T04:46:34;11.33;;;2.50;;
10659;SDS011;5378;53.206;13.316;2023-02-01T04:49:23;17.07;;;2.50;;
10659;SDS011;5378;53.206;13.316;2023-02-01T04:52:10;17.90;;;2.17;;
10659;SDS011;5378;53.206;13.316;2023-02-01T04:54:58;8.60;;;2.23;;
10659;SDS011;5378;53.206;13.316;2023-02-01T04:57:45;15.13;;;2.23;;
10659;SDS011;5378;53.206;13.316;2023-02-01T05:00:33;16.90;;;2.23;;
10659;SDS011;5378;53.206;13.316;2023-02-01T05:03:20;17.50;;;2.40;;
10659;SDS011;5378;53.206;13.316;2023-02-01T05:06:09;15.43;;;2.13;;
10659;SDS011;5378;53.206;13.316;2023-02-01T05:08:56;19.47;;;2.23;;
10659;SDS011;5378;53.206;13.316;2023-02-01T05:11:43;8.50;;;1.80;;
10659;SDS011;5378;53.206;13.316;2023-02-01T05:14:48;9.17;;;1.80;;
10659;SDS011;5378;53.206;13.316;2023-02-01T05:17:35;14.40;;;2.90;;
10659;SDS011;5378;53.206;13.316;2023-02-01T05:20:22;17.17;;;1.90;;
10659;SDS011;5378;53.206;13.316;2023-02-01T05:23:11;16.30;;;2.00;;
10659;SDS011;5378;53.206;13.316;2023-02-01T05:25:58;10.07;;;2.00;;
10659;SDS011;5378;53.206;13.316;2023-02-01T05:28:46;13.93;;;2.60;;
10659;SDS011;5378;53.206;13.316;2023-02-01T05:31:33;11.83;;;2.60;;
10659;SDS011;5378;53.206;13.316;2023-02-01T05:34:21;12.17;;;1.63;;
10659;SDS011;5378;53.206;13.316;2023-02-01T05:37:08;13.80;;;2.50;;
10659;SDS011;5378;53.206;13.316;2023-02-01T05:39:56;24.57;;;2.43;;
10659;SDS011;5378;53.206;13.316;2023-02-01T05:42:43;18.93;;;4.00;;
10659;SDS011;5378;53.206;13.316;2023-02-01T05:45:30;16.57;;;2.50;;
10659;SDS011;5378;53.206;13.316;2023-02-01T05:48:18;20.67;;;2.23;;
10659;SDS011;5378;53.206;13.316;2023-02-01T05:51:05;23.50;;;3.57;;
10659;SDS011;5378;53.206;13.316;2023-02-01T05:53:53;7.73;;;1.87;;
10659;SDS011;5378;53.206;13.316;2023-02-01T05:56:41;15.30;;;2.47;;
10659;SDS011;5378;53.206;13.316;2023-02-01T05:59:28;17.53;;;4.03;;
10659;SDS011;5378;53.206;13.316;2023-02-01T06:02:15;9.60;;;2.13;;
10659;SDS011;5378;53.206;13.316;2023-02-01T06:05:03;16.47;;;3.00;;
10659;SDS011;5378;53.206;13.316;2023-02-01T06:07:50;14.27;;;2.73;;
10659;SDS011;5378;53.206;13.316;2023-02-01T06:10:38;21.00;;;2.10;;
10659;SDS011;5378;53.206;13.316;2023-02-01T06:13:27;21.13;;;2.10;;
10659;SDS011;5378;53.206;13.316;2023-02-01T06:16:14;8.53;;;2.17;;
10659;SDS011;5378;53.206;13.316;2023-02-01T06:19:01;16.83;;;3.40;;
10659;SDS011;5378;53.206;13.316;2023-02-01T06:21:48;11.00;;;2.30;;
10659;SDS011;5378;53.206;13.316;2023-02-01T06:24:36;8.87;;;1.50;;
10659;SDS011;5378;53.206;13.316;2023-02-01T06:27:23;14.73;;;2.30;;
10659;SDS011;5378;53.206;13.316;2023-02-01T06:30:12;3.10;;;1.13;;
10659;SDS011;5378;53.206;13.316;2023-02-01T06:33:02;8.00;;;1.37;;
10659;SDS011;5378;53.206;13.316;2023-02-01T06:35:49;10.30;;;1.67;;
10659;SDS011;5378;53.206;13.316;2023-02-01T06:38:44;14.83;;;1.50;;
10659;SDS011;5378;53.206;13.316;2023-02-01T06:41:31;5.27;;;1.37;;
10659;SDS011;5378;53.206;13.316;2023-02-01T06:44:20;6.37;;;1.60;;
10659;SDS011;5378;53.206;13.316;2023-02-01T06:47:08;6.90;;;1.40;;
10659;SDS011;5378;53.206;13.316;2023-02-01T06:49:56;3.67;;;1.10;;
10659;SDS011;5378;53.206;13.316;2023-02-01T06:52:43;3.27;;;0.70;;
10659;SDS011;5378;53.206;13.316;2023-02-01T06:55:30;2.73;;;1.37;;
10659;SDS011;5378;53.206;13.316;2023-02-01T06:58:17;8.37;;;1.40;;
10659;SDS011;5378;53.206;13.316;2023-02-01T07:01:04;3.70;;;1.63;;
10659;SDS011;5378;53.206;13.316;2023-02-01T07:03:53;5.43;;;1.40;;
10659;SDS011;5378;53.206;13.316;2023-02-01T07:06:40;2.73;;;0.80;;
10659;SDS011;5378;53.206;13.316;2023-02-01T07:09:28;2.80;;;1.00;;
10659;SDS011;5378;53.206;13.316;2023-02-01T07:12:15;12.67;;;1.30;;
10659;SDS011;5378;53.206;13.316;2023-02-01T07:15:02;3.20;;;0.60;;
10659;SDS011;5378;53.206;13.316;2023-02-01T07:17:50;7.33;;;2.67;;
10659;SDS011;5378;53.206;13.316;2023-02-01T07:20:38;13.00;;;1.43;;
10659;SDS011;5378;53.206;13.316;2023-02-01T07:23:25;10.53;;;1.60;;
10659;SDS011;5378;53.206;13.316;2023-02-01T07:26:14;8.40;;;2.20;;
10659;SDS011;5378;53.206;13.316;2023-02-01T07:29:02;4.73;;;1.40;;
10659;SDS011;5378;53.206;13.316;2023-02-01T07:31:49;10.33;;;1.20;;
10659;SDS011;5378;53.206;13.316;2023-02-01T07:34:36;2.33;;;1.20;;
10659;SDS011;5378;53.206;13.316;2023-02-01T07:37:24;4.73;;;1.40;;
10659;SDS011;5378;53.206;13.316;2023-02-01T07:40:12;4.30;;;1.23;;
10659;SDS011;5378;53.206;13.316;2023-02-01T07:42:59;5.80;;;1.50;;
10659;SDS011;5378;53.206;13.316;2023-02-01T07:45:50;2.10;;;1.13;;
10659;SDS011;5378;53.206;13.316;2023-02-01T07:48:38;5.87;;;2.00;;
10659;SDS011;5378;53.206;13.316;2023-02-01T07:51:25;3.73;;;0.73;;
10659;SDS011;5378;53.206;13.316;2023-02-01T07:54:14;6.23;;;1.67;;
10659;SDS011;5378;53.206;13.316;2023-02-01T07:57:01;11.17;;;4.03;;
10659;SDS011;5378;53.206;13.316;2023-02-01T07:59:48;19.80;;;3.33;;
10659;SDS011;5378;53.206;13.316;2023-02-01T08:02:57;6.23;;;1.60;;
10659;SDS011;5378;53.206;13.316;2023-02-01T08:05:44;13.60;;;3.20;;
10659;SDS011;5378;53.206;13.316;2023-02-01T08:08:32;11.20;;;2.67;;
10659;SDS011;5378;53.206;13.316;2023-02-01T08:11:21;10.03;;;2.70;;
10659;SDS011;5378;53.206;13.316;2023-02-01T08:14:10;12.43;;;2.70;;
10659;SDS011;5378;53.206;13.316;2023-02-01T08:16:57;9.10;;;1.90;;
10659;SDS011;5378;53.206;13.316;2023-02-01T08:19:44;6.63;;;2.03;;
10659;SDS011;5378;53.206;13.316;2023-02-01T08:22:31;8.03;;;1.50;;
10659;SDS011;5378;53.206;13.316;2023-02-01T08:25:18;2.93;;;0.93;;
10659;SDS011;5378;53.206;13.316;2023-02-01T08:28:07;1.73;;;0.53;;
10659;SDS011;5378;53.206;13.316;2023-02-01T08:30:55;2.70;;;1.00;;
10659;SDS011;5378;53.206;13.316;2023-02-01T08:33:42;2.30;;;0.70;;
10659;SDS011;5378;53.206;13.316;2023-02-01T08:36:30;1.80;;;0.60;;
10659;SDS011;5378;53.206;13.316;2023-02-01T08:39:17;0.97;;;0.60;;
10659;SDS011;5378;53.206;13.316;2023-02-01T08:42:04;3.33;;;0.80;;
10659;SDS011;5378;53.206;13.316;2023-02-01T08:45:11;7.60;;;0.57;;
10659;SDS011;5378;53.206;13.316;2023-02-01T08:47:59;4.50;;;1.30;;
10659;SDS011;5378;53.206;13.316;2023-02-01T08:50:46;1.03;;;0.50;;
10659;SDS011;5378;53.206;13.316;2023-02-01T08:53:33;1.43;;;0.73;;
10659;SDS011;5378;53.206;13.316;2023-02-01T08:56:21;0.73;;;0.50;;
10659;SDS011;5378;53.206;13.316;2023-02-01T08:59:08;1.47;;;0.40;;
10659;SDS011;5378;53.206;13.316;2023-02-01T09:01:57;0.60;;;0.40;;
10659;SDS011;5378;53.206;13.316;2023-02-01T09:04:44;2.60;;;0.80;;
10659;SDS011;5378;53.206;13.316;2023-02-01T09:07:32;1.00;;;0.50;;
10659;SDS011;5378;53.206;13.316;2023-02-01T09:10:20;5.50;;;0.40;;
10659;SDS011;5378;53.206;13.316;2023-02-01T09:13:19;1.93;;;0.40;;
10659;SDS011;5378;53.206;13.316;2023-02-01T09:16:07;3.70;;;0.60;;
10659;SDS011;5378;53.206;13.316;2023-02-01T09:18:56;1.37;;;0.30;;
10659;SDS011;5378;53.206;13.316;2023-02-01T09:22:03;1.43;;;0.50;;
10659;SDS011;5378;53.206;13.316;2023-02-01T09:24:51;0.93;;;0.60;;
10659;SDS011;5378;53.206;13.316;2023-02-01T09:27:39;0.50;;;0.20;;
10659;SDS011;5378;53.206;13.316;2023-02-01T09:30:27;1.17;;;0.30;;
10659;SDS011;5378;53.206;13.316;2023-02-01T09:33:15;3.03;;;0.83;;
10659;SDS011;5378;53.206;13.316;2023-02-01T09:36:04;5.53;;;0.47;;
10659;SDS011;5378;53.206;13.316;2023-02-01T09:38:52;10.70;;;1.03;;
10659;SDS011;5378;53.206;13.316;2023-02-01T09:41:42;2.17;;;0.50;;
10659;SDS011;5378;53.206;13.316;2023-02-01T09:44:42;1.40;;;0.47;;
10659;SDS011;5378;53.206;13.316;2023-02-01T09:47:43;0.70;;;0.43;;
10659;SDS011;5378;53.206;13.316;2023-02-01T09:50:35;1.03;;;0.50;;
10659;SDS011;5378;53.206;13.316;2023-02-01T09:53:27;3.70;;;0.87;;
10659;SDS011;5378;53.206;13.316;2023-02-01T09:56:18;6.60;;;1.10;;
10659;SDS011;5378;53.206;13.316;2023-02-01T09:59:11;7.50;;;0.93;;
10659;SDS011;5378;53.206;13.316;2023-02-01T10:02:12;4.13;;;0.90;;
10659;SDS011;5378;53.206;13.316;2023-02-01T10:05:03;0.90;;;0.67;;
10659;SDS011;5378;53.206;13.316;2023-02-01T10:07:51;3.90;;;0.90;;
10659;SDS011;5378;53.206;13.316;2023-02-01T10:10:48;3.03;;;0.97;;
10659;SDS011;5378;53.206;13.316;2023-02-01T10:13:39;6.13;;;0.93;;
10659;SDS011;5378;53.206;13.316;2023-02-01T10:16:37;6.00;;;1.43;;
10659;SDS011;5378;53.206;13.316;2023-02-01T10:19:34;3.13;;;1.00;;
10659;SDS011;5378;53.206;13.316;2023-02-01T10:22:30;8.73;;;1.73;;
10659;SDS011;5378;53.206;13.316;2023-02-01T10:25:48;9.50;;;1.53;;
10659;SDS011;5378;53.206;13.316;2023-02-01T10:28:42;9.30;;;1.30;;
10659;SDS011;5378;53.206;13.316;2023-02-01T10:31:31;9.40;;;1.20;;
10659;SDS011;5378;53.206;13.316;2023-02-01T10:34:24;4.20;;;0.77;;
10659;SDS011;5378;53.206;13.316;2023-02-01T10:37:16;6.43;;;1.17;;
10659;SDS011;5378;53.206;13.316;2023-02-01T10:40:12;5.10;;;0.90;;
10659;SDS011;5378;53.206;13.316;2023-02-01T10:43:05;3.20;;;1.27;;
10659;SDS011;5378;53.206;13.316;2023-02-01T10:45:52;4.90;;;1.50;;
10659;SDS011;5378;53.206;13.316;2023-02-01T10:48:39;8.50;;;1.70;;
10659;SDS011;5378;53.206;13.316;2023-02-01T10:51:28;9.13;;;1.60;;
10659;SDS011;5378;53.206;13.316;2023-02-01T10:54:19;11.00;;;1.17;;
10659;SDS011;5378;53.206;13.316;2023-02-01T10:57:08;10.40;;;1.60;;
10659;SDS011;5378;53.206;13.316;2023-02-01T10:59:58;4.13;;;1.70;;
10659;SDS011;5378;53.206;13.316;2023-02-01T11:02:49;9.57;;;1.50;;
10659;SDS011;5378;53.206;13.316;2023-02-01T11:05:42;23.53;;;2.60;;
10659;SDS011;5378;53.206;13.316;2023-02-01T11:08:31;4.57;;;1.57;;
10659;SDS011;5378;53.206;13.316;2023-02-01T11:11:18;5.77;;;1.77;;
10659;SDS011;5378;53.206;13.316;2023-02-01T11:14:10;16.23;;;1.33;;
10659;SDS011;5378;53.206;13.316;2023-02-01T11:17:12;3.40;;;1.10;;
10659;SDS011;5378;53.206;13.316;2023-02-01T11:20:08;1.27;;;0.80;;
10659;SDS011;5378;53.206;13.316;2023-02-01T11:23:01;7.20;;;1.17;;
10659;SDS011;5378;53.206;13.316;2023-02-01T11:25:49;10.20;;;1.20;;
10659;SDS011;5378;53.206;13.316;2023-02-01T11:28:39;7.40;;;1.43;;
10659;SDS011;5378;53.206;13.316;2023-02-01T11:31:32;8.73;;;2.13;;
10659;SDS011;5378;53.206;13.316;2023-02-01T11:34:23;6.13;;;1.37;;
10659;SDS011;5378;53.206;13.316;2023-02-01T11:37:14;9.33;;;1.30;;
10659;SDS011;5378;53.206;13.316;2023-02-01T11:40:22;9.13;;;1.60;;
10659;SDS011;5378;53.206;13.316;2023-02-01T11:43:13;5.73;;;1.13;;
10659;SDS011;5378;53.206;13.316;2023-02-01T11:46:16;4.27;;;1.73;;
10659;SDS011;5378;53.206;13.316;2023-02-01T11:49:14;4.03;;;1.57;;
10659;SDS011;5378;53.206;13.316;2023-02-01T11:52:10;14.20;;;1.40;;
10659;SDS011;5378;53.206;13.316;2023-02-01T11:55:10;12.30;;;2.17;;
10659;SDS011;5378;53.206;13.316;2023-02-01T11:58:06;6.70;;;1.93;;
10659;SDS011;5378;53.206;13.316;2023-02-01T12:01:06;8.70;;;2.97;;
10659;SDS011;5378;53.206;13.316;2023-02-01T12:07:23;10.40;;;2.40;;
10659;SDS011;5378;53.206;13.316;2023-02-01T12:10:23;10.40;;;2.30;;
10659;SDS011;5378;53.206;13.316;2023-02-01T12:13:19;5.63;;;2.17;;
10659;SDS011;5378;53.206;13.316;2023-02-01T12:16:22;6.03;;;1.50;;
10659;SDS011;5378;53.206;13.316;2023-02-01T12:19:18;10.63;;;1.57;;
10659;SDS011;5378;53.206;13.316;2023-02-01T12:22:19;7.93;;;1.97;;
10659;SDS011;5378;53.206;13.316;2023-02-01T12:25:21;13.30;;;1.73;;
10659;SDS011;5378;53.206;13.316;2023-02-01T12:28:16;4.43;;;1.30;;
10659;SDS011;5378;53.206;13.316;2023-02-01T12:31:20;5.13;;;1.10;;
10659;SDS011;5378;53.206;13.316;2023-02-01T12:34:24;6.40;;;0.97;;
10659;SDS011;5378;53.206;13.316;2023-02-01T12:37:23;4.57;;;1.30;;
10659;SDS011;5378;53.206;13.316;2023-02-01T12:40:28;5.50;;;0.60;;
10659;SDS011;5378;53.206;13.316;2023-02-01T12:43:32;5.20;;;1.27;;
10659;SDS011;5378;53.206;13.316;2023-02-01T12:46:26;13.40;;;1.93;;
10659;SDS011;5378;53.206;13.316;2023-02-01T12:49:18;10.50;;;0.80;;
10659;SDS011;5378;53.206;13.316;2023-02-01T12:52:12;13.80;;;2.10;;
10659;SDS011;5378;53.206;13.316;2023-02-01T12:55:05;7.03;;;1.17;;
10659;SDS011;5378;53.206;13.316;2023-02-01T12:58:04;12.80;;;2.40;;
10659;SDS011;5378;53.206;13.316;2023-02-01T13:00:58;7.50;;;1.70;;
10659;SDS011;5378;53.206;13.316;2023-02-01T13:03:50;5.80;;;1.50;;
10659;SDS011;5378;53.206;13.316;2023-02-01T13:06:43;2.97;;;1.00;;
10659;SDS011;5378;53.206;13.316;2023-02-01T13:09:36;4.17;;;1.20;;
10659;SDS011;5378;53.206;13.316;2023-02-01T13:12:31;3.13;;;1.20;;
10659;SDS011;5378;53.206;13.316;2023-02-01T13:15:23;11.70;;;1.10;;
10659;SDS011;5378;53.206;13.316;2023-02-01T13:18:13;4.67;;;0.77;;
10659;SDS011;5378;53.206;13.316;2023-02-01T13:21:04;6.43;;;1.00;;
10659;SDS011;5378;53.206;13.316;2023-02-01T13:23:54;1.50;;;0.70;;
10659;SDS011;5378;53.206;13.316;2023-02-01T13:26:41;7.40;;;1.03;;
10659;SDS011;5378;53.206;13.316;2023-02-01T13:29:30;11.67;;;0.80;;
10659;SDS011;5378;53.206;13.316;2023-02-01T13:32:27;2.83;;;0.73;;
10659;SDS011;5378;53.206;13.316;2023-02-01T13:35:42;4.40;;;0.93;;
10659;SDS011;5378;53.206;13.316;2023-02-01T13:38:56;8.07;;;1.00;;
10659;SDS011;5378;53.206;13.316;2023-02-01T13:42:03;6.43;;;1.17;;
10659;SDS011;5378;53.206;13.316;2023-02-01T13:44:59;15.10;;;1.20;;
10659;SDS011;5378;53.206;13.316;2023-02-01T13:47:50;5.60;;;1.57;;
10659;SDS011;5378;53.206;13.316;2023-02-01T13:50:39;4.30;;;0.93;;
10659;SDS011;5378;53.206;13.316;2023-02-01T13:53:29;10.57;;;1.43;;
10659;SDS011;5378;53.206;13.316;2023-02-01T13:56:18;3.60;;;1.00;;
10659;SDS011;5378;53.206;13.316;2023-02-01T14:09:31;4.87;;;0.93;;
10659;SDS011;5378;53.206;13.316;2023-02-01T14:15:29;8.33;;;1.07;;
10659;SDS011;5378;53.206;13.316;2023-02-01T14:21:47;10.50;;;1.10;;
10659;SDS011;5378;53.206;13.316;2023-02-01T14:24:37;2.10;;;0.60;;
10659;SDS011;5378;53.206;13.316;2023-02-01T14:27:24;1.17;;;0.47;;
10659;SDS011;5378;53.206;13.316;2023-02-01T14:30:14;2.13;;;0.90;;
10659;SDS011;5378;53.206;13.316;2023-02-01T14:33:10;4.60;;;1.50;;
10659;SDS011;5378;53.206;13.316;2023-02-01T14:36:07;3.23;;;1.23;;
10659;SDS011;5378;53.206;13.316;2023-02-01T14:38:57;4.17;;;0.77;;
10659;SDS011;5378;53.206;13.316;2023-02-01T14:41:45;11.83;;;2.10;;
10659;SDS011;5378;53.206;13.316;2023-02-01T14:44:34;8.43;;;0.80;;
10659;SDS011;5378;53.206;13.316;2023-02-01T14:47:32;4.57;;;1.23;;
10659;SDS011;5378;53.206;13.316;2023-02-01T14:50:24;1.53;;;1.10;;
10659;SDS011;5378;53.206;13.316;2023-02-01T14:53:21;4.70;;;0.87;;
10659;SDS011;5378;53.206;13.316;2023-02-01T14:56:15;4.93;;;0.60;;
10659;SDS011;5378;53.206;13.316;2023-02-01T14:59:06;4.43;;;1.60;;
10659;SDS011;5378;53.206;13.316;2023-02-01T15:01:56;4.13;;;0.97;;
10659;SDS011;5378;53.206;13.316;2023-02-01T15:04:44;4.73;;;0.87;;
10659;SDS011;5378;53.206;13.316;2023-02-01T15:07:32;3.13;;;0.77;;
10659;SDS011;5378;53.206;13.316;2023-02-01T15:10:20;2.17;;;0.80;;
10659;SDS011;5378;53.206;13.316;2023-02-01T15:13:12;3.73;;;1.20;;
10659;SDS011;5378;53.206;13.316;2023-02-01T15:16:07;4.10;;;1.30;;
10659;SDS011;5378;53.206;13.316;2023-02-01T15:19:07;12.53;;;2.53;;
10659;SDS011;5378;53.206;13.316;2023-02-01T15:21:56;2.10;;;0.90;;
10659;SDS011;5378;53.206;13.316;2023-02-01T15:24:51;1.37;;;0.80;;
10659;SDS011;5378;53.206;13.316;2023-02-01T15:27:39;2.33;;;0.70;;
10659;SDS011;5378;53.206;13.316;2023-02-01T15:30:27;4.10;;;1.10;;
10659;SDS011;5378;53.206;13.316;2023-02-01T15:33:17;4.00;;;1.03;;
10659;SDS011;5378;53.206;13.316;2023-02-01T15:36:08;0.77;;;0.50;;
10659;SDS011;5378;53.206;13.316;2023-02-01T15:42:09;1.33;;;0.83;;
10659;SDS011;5378;53.206;13.316;2023-02-01T15:45:02;0.90;;;0.40;;
10659;SDS011;5378;53.206;13.316;2023-02-01T15:47:49;2.30;;;0.83;;
10659;SDS011;5378;53.206;13.316;2023-02-01T15:50:39;1.27;;;1.00;;
10659;SDS011;5378;53.206;13.316;2023-02-01T15:53:26;2.53;;;0.83;;
10659;SDS011;5378;53.206;13.316;2023-02-01T15:56:19;0.60;;;0.50;;
10659;SDS011;5378;53.206;13.316;2023-02-01T15:59:12;1.43;;;0.67;;
10659;SDS011;5378;53.206;13.316;2023-02-01T16:02:04;3.17;;;0.80;;
10659;SDS011;5378;53.206;13.316;2023-02-01T16:05:25;2.50;;;0.80;;
10659;SDS011;5378;53.206;13.316;2023-02-01T16:08:20;1.10;;;0.73;;
10659;SDS011;5378;53.206;13.316;2023-02-01T16:11:22;0.70;;;0.70;;
10659;SDS011;5378;53.206;13.316;2023-02-01T16:14:12;2.50;;;0.90;;
10659;SDS011;5378;53.206;13.316;2023-02-01T16:17:00;2.30;;;0.80;;
10659;SDS011;5378;53.206;13.316;2023-02-01T16:19:49;3.77;;;1.00;;
10659;SDS011;5378;53.206;13.316;2023-02-01T16:22:37;0.80;;;0.53;;
10659;SDS011;5378;53.206;13.316;2023-02-01T16:25:24;4.37;;;0.80;;
10659;SDS011;5378;53.206;13.316;2023-02-01T16:28:11;1.00;;;0.60;;
10659;SDS011;5378;53.206;13.316;2023-02-01T16:30:58;4.53;;;0.60;;
10659;SDS011;5378;53.206;13.316;2023-02-01T16:33:46;5.70;;;0.90;;
10659;SDS011;5378;53.206;13.316;2023-02-01T16:36:36;7.70;;;0.73;;
10659;SDS011;5378;53.206;13.316;2023-02-01T16:39:23;2.27;;;0.60;;
10659;SDS011;5378;53.206;13.316;2023-02-01T16:42:13;2.10;;;0.80;;
10659;SDS011;5378;53.206;13.316;2023-02-01T16:45:02;1.27;;;0.57;;
10659;SDS011;5378;53.206;13.316;2023-02-01T16:47:51;4.73;;;0.60;;
10659;SDS011;5378;53.206;13.316;2023-02-01T16:50:41;9.50;;;0.63;;
10659;SDS011;5378;53.206;13.316;2023-02-01T16:53:30;3.47;;;0.60;;
10659;SDS011;5378;53.206;13.316;2023-02-01T16:56:28;0.70;;;0.47;;
10659;SDS011;5378;53.206;13.316;2023-02-01T16:59:17;0.60;;;0.33;;
10659;SDS011;5378;53.206;13.316;2023-02-01T17:02:04;0.83;;;0.70;;
10659;SDS011;5378;53.206;13.316;2023-02-01T17:04:51;0.90;;;0.40;;
10659;SDS011;5378;53.206;13.316;2023-02-01T17:07:38;0.60;;;0.30;;
10659;SDS011;5378;53.206;13.316;2023-02-01T17:10:27;0.63;;;0.27;;
10659;SDS011;5378;53.206;13.316;2023-02-01T17:13:18;0.50;;;0.27;;
10659;SDS011;5378;53.206;13.316;2023-02-01T17:16:09;0.93;;;0.67;;
10659;SDS011;5378;53.206;13.316;2023-02-01T17:19:06;0.70;;;0.30;;
10659;SDS011;5378;53.206;13.316;2023-02-01T17:21:59;3.63;;;0.50;;
10659;SDS011;5378;53.206;13.316;2023-02-01T17:24:46;0.50;;;0.27;;
10659;SDS011;5378;53.206;13.316;2023-02-01T17:27:35;0.70;;;0.40;;
10659;SDS011;5378;53.206;13.316;2023-02-01T17:30:23;4.77;;;0.73;;
10659;SDS011;5378;53.206;13.316;2023-02-01T17:33:11;2.07;;;0.60;;
10659;SDS011;5378;53.206;13.316;2023-02-01T17:36:09;8.30;;;0.77;;